sensor_id;sensor_type;location;lat;lon;timestamp;P1;durP1;ratioP1;P2;durP2;ratioP2
7156;SDS011;3620;49.862;8.758;2022-09-23T00:00:57;1.00;;;1.00;;
7156;SDS011;3620;49.862;8.758;2022-09-23T00:03:26;1.00;;;1.00;;
7156;SDS011;3620;49.862;8.758;2022-09-23T00:05:58;0.90;;;0.90;;
7156;SDS011;3620;49.862;8.758;2022-09-23T00:08:26;1.00;;;1.00;;
7156;SDS011;3620;49.862;8.758;2022-09-23T00:10:53;1.00;;;1.00;;
7156;SDS011;3620;49.862;8.758;2022-09-23T00:13:20;1.00;;;1.00;;
7156;SDS011;3620;49.862;8.758;2022-09-23T00:15:47;1.00;;;1.00;;
7156;SDS011;3620;49.862;8.758;2022-09-23T00:18:14;1.00;;;1.00;;
7156;SDS011;3620;49.862;8.758;2022-09-23T00:20:42;1.10;;;1.10;;
7156;SDS011;3620;49.862;8.758;2022-09-23T00:23:10;1.00;;;1.00;;
7156;SDS011;3620;49.862;8.758;2022-09-23T00:25:36;0.97;;;0.97;;
7156;SDS011;3620;49.862;8.758;2022-09-23T00:28:03;1.00;;;1.00;;
7156;SDS011;3620;49.862;8.758;2022-09-23T00:30:30;1.00;;;1.00;;
7156;SDS011;3620;49.862;8.758;2022-09-23T00:32:57;1.20;;;1.20;;
7156;SDS011;3620;49.862;8.758;2022-09-23T00:35:24;1.07;;;1.07;;
7156;SDS011;3620;49.862;8.758;2022-09-23T00:37:51;1.00;;;1.00;;
7156;SDS011;3620;49.862;8.758;2022-09-23T00:40:19;1.00;;;1.00;;
7156;SDS011;3620;49.862;8.758;2022-09-23T00:42:46;1.00;;;1.00;;
7156;SDS011;3620;49.862;8.758;2022-09-23T00:45:13;1.00;;;1.00;;
7156;SDS011;3620;49.862;8.758;2022-09-23T00:47:42;1.10;;;1.10;;
7156;SDS011;3620;49.862;8.758;2022-09-23T00:50:12;1.10;;;1.10;;
7156;SDS011;3620;49.862;8.758;2022-09-23T00:52:43;1.00;;;1.00;;
7156;SDS011;3620;49.862;8.758;2022-09-23T00:55:12;1.00;;;1.00;;
7156;SDS011;3620;49.862;8.758;2022-09-23T00:57:44;0.97;;;0.97;;
7156;SDS011;3620;49.862;8.758;2022-09-23T01:00:12;1.03;;;1.03;;
7156;SDS011;3620;49.862;8.758;2022-09-23T01:02:39;0.90;;;0.90;;
7156;SDS011;3620;49.862;8.758;2022-09-23T01:05:06;0.90;;;0.90;;
7156;SDS011;3620;49.862;8.758;2022-09-23T01:07:34;1.00;;;1.00;;
7156;SDS011;3620;49.862;8.758;2022-09-23T01:10:00;1.10;;;1.10;;
7156;SDS011;3620;49.862;8.758;2022-09-23T01:12:36;1.00;;;1.00;;
7156;SDS011;3620;49.862;8.758;2022-09-23T01:15:24;1.00;;;1.00;;
7156;SDS011;3620;49.862;8.758;2022-09-23T01:17:59;1.00;;;1.00;;
7156;SDS011;3620;49.862;8.758;2022-09-23T01:20:37;1.00;;;1.00;;
7156;SDS011;3620;49.862;8.758;2022-09-23T01:23:21;1.00;;;1.00;;
7156;SDS011;3620;49.862;8.758;2022-09-23T01:26:10;1.00;;;1.00;;
7156;SDS011;3620;49.862;8.758;2022-09-23T01:29:00;0.90;;;0.90;;
7156;SDS011;3620;49.862;8.758;2022-09-23T01:31:50;1.00;;;1.00;;
7156;SDS011;3620;49.862;8.758;2022-09-23T01:34:24;0.80;;;0.80;;
7156;SDS011;3620;49.862;8.758;2022-09-23T01:36:55;1.00;;;1.00;;
7156;SDS011;3620;49.862;8.758;2022-09-23T01:39:27;0.93;;;0.93;;
7156;SDS011;3620;49.862;8.758;2022-09-23T01:42:00;1.00;;;1.00;;
7156;SDS011;3620;49.862;8.758;2022-09-23T01:44:32;1.10;;;1.10;;
7156;SDS011;3620;49.862;8.758;2022-09-23T01:47:05;0.90;;;0.90;;
7156;SDS011;3620;49.862;8.758;2022-09-23T01:49:38;0.90;;;0.90;;
7156;SDS011;3620;49.862;8.758;2022-09-23T01:52:11;0.90;;;0.90;;
7156;SDS011;3620;49.862;8.758;2022-09-23T01:54:43;1.00;;;1.00;;
7156;SDS011;3620;49.862;8.758;2022-09-23T01:57:16;1.00;;;1.00;;
7156;SDS011;3620;49.862;8.758;2022-09-23T01:59:47;1.10;;;1.10;;
7156;SDS011;3620;49.862;8.758;2022-09-23T02:02:19;1.00;;;1.00;;
7156;SDS011;3620;49.862;8.758;2022-09-23T02:04:54;1.03;;;1.03;;
7156;SDS011;3620;49.862;8.758;2022-09-23T02:07:26;0.97;;;0.97;;
7156;SDS011;3620;49.862;8.758;2022-09-23T02:09:58;1.00;;;1.00;;
7156;SDS011;3620;49.862;8.758;2022-09-23T02:12:31;1.10;;;1.10;;
7156;SDS011;3620;49.862;8.758;2022-09-23T02:15:03;1.00;;;1.00;;
7156;SDS011;3620;49.862;8.758;2022-09-23T02:17:37;1.00;;;1.00;;
7156;SDS011;3620;49.862;8.758;2022-09-23T02:20:10;1.10;;;1.10;;
7156;SDS011;3620;49.862;8.758;2022-09-23T02:22:40;0.90;;;0.90;;
7156;SDS011;3620;49.862;8.758;2022-09-23T02:25:12;1.10;;;1.10;;
7156;SDS011;3620;49.862;8.758;2022-09-23T02:27:42;1.10;;;1.10;;
7156;SDS011;3620;49.862;8.758;2022-09-23T02:30:16;1.10;;;1.10;;
7156;SDS011;3620;49.862;8.758;2022-09-23T02:32:48;1.07;;;1.07;;
7156;SDS011;3620;49.862;8.758;2022-09-23T02:35:19;1.00;;;1.00;;
7156;SDS011;3620;49.862;8.758;2022-09-23T02:38:00;0.90;;;0.90;;
7156;SDS011;3620;49.862;8.758;2022-09-23T02:40:39;0.97;;;0.97;;
7156;SDS011;3620;49.862;8.758;2022-09-23T02:43:16;1.10;;;1.10;;
7156;SDS011;3620;49.862;8.758;2022-09-23T02:45:47;0.97;;;0.97;;
7156;SDS011;3620;49.862;8.758;2022-09-23T02:48:17;1.00;;;1.00;;
7156;SDS011;3620;49.862;8.758;2022-09-23T02:50:46;1.00;;;1.00;;
7156;SDS011;3620;49.862;8.758;2022-09-23T02:53:13;1.10;;;1.10;;
7156;SDS011;3620;49.862;8.758;2022-09-23T02:55:41;0.90;;;0.90;;
7156;SDS011;3620;49.862;8.758;2022-09-23T02:58:08;0.90;;;0.90;;
7156;SDS011;3620;49.862;8.758;2022-09-23T03:00:39;1.00;;;1.00;;
7156;SDS011;3620;49.862;8.758;2022-09-23T03:03:21;1.10;;;1.10;;
7156;SDS011;3620;49.862;8.758;2022-09-23T03:06:03;0.90;;;0.90;;
7156;SDS011;3620;49.862;8.758;2022-09-23T03:08:40;1.10;;;1.10;;
7156;SDS011;3620;49.862;8.758;2022-09-23T03:11:13;1.00;;;1.00;;
7156;SDS011;3620;49.862;8.758;2022-09-23T03:13:47;1.00;;;1.00;;
7156;SDS011;3620;49.862;8.758;2022-09-23T03:16:23;0.97;;;0.97;;
7156;SDS011;3620;49.862;8.758;2022-09-23T03:19:01;1.00;;;1.00;;
7156;SDS011;3620;49.862;8.758;2022-09-23T03:21:40;1.10;;;1.10;;
7156;SDS011;3620;49.862;8.758;2022-09-23T03:24:10;0.80;;;0.80;;
7156;SDS011;3620;49.862;8.758;2022-09-23T03:26:39;1.00;;;1.00;;
7156;SDS011;3620;49.862;8.758;2022-09-23T03:29:10;1.10;;;1.10;;
7156;SDS011;3620;49.862;8.758;2022-09-23T03:31:40;1.00;;;1.00;;
7156;SDS011;3620;49.862;8.758;2022-09-23T03:34:11;1.10;;;1.10;;
7156;SDS011;3620;49.862;8.758;2022-09-23T03:36:41;1.00;;;1.00;;
7156;SDS011;3620;49.862;8.758;2022-09-23T03:39:22;0.97;;;0.97;;
7156;SDS011;3620;49.862;8.758;2022-09-23T03:42:05;1.00;;;1.00;;
7156;SDS011;3620;49.862;8.758;2022-09-23T03:44:41;1.00;;;1.00;;
7156;SDS011;3620;49.862;8.758;2022-09-23T03:47:09;1.00;;;1.00;;
7156;SDS011;3620;49.862;8.758;2022-09-23T03:49:40;1.00;;;1.00;;
7156;SDS011;3620;49.862;8.758;2022-09-23T03:52:12;1.10;;;1.10;;
7156;SDS011;3620;49.862;8.758;2022-09-23T03:54:39;1.00;;;1.00;;
7156;SDS011;3620;49.862;8.758;2022-09-23T03:57:06;0.90;;;0.90;;
7156;SDS011;3620;49.862;8.758;2022-09-23T03:59:33;1.07;;;1.07;;
7156;SDS011;3620;49.862;8.758;2022-09-23T04:01:59;1.07;;;1.07;;
7156;SDS011;3620;49.862;8.758;2022-09-23T04:04:27;1.10;;;1.10;;
7156;SDS011;3620;49.862;8.758;2022-09-23T04:06:59;1.17;;;1.17;;
7156;SDS011;3620;49.862;8.758;2022-09-23T04:09:26;1.00;;;1.00;;
7156;SDS011;3620;49.862;8.758;2022-09-23T04:11:53;0.90;;;0.90;;
7156;SDS011;3620;49.862;8.758;2022-09-23T04:14:20;1.00;;;1.00;;
7156;SDS011;3620;49.862;8.758;2022-09-23T04:16:48;1.00;;;1.00;;
7156;SDS011;3620;49.862;8.758;2022-09-23T04:19:15;1.10;;;1.10;;
7156;SDS011;3620;49.862;8.758;2022-09-23T04:21:42;1.00;;;1.00;;
7156;SDS011;3620;49.862;8.758;2022-09-23T04:24:11;1.03;;;1.03;;
7156;SDS011;3620;49.862;8.758;2022-09-23T04:26:37;0.93;;;0.93;;
7156;SDS011;3620;49.862;8.758;2022-09-23T04:29:05;1.00;;;1.00;;
7156;SDS011;3620;49.862;8.758;2022-09-23T04:31:32;1.13;;;1.13;;
7156;SDS011;3620;49.862;8.758;2022-09-23T04:33:59;1.10;;;1.10;;
7156;SDS011;3620;49.862;8.758;2022-09-23T04:36:26;1.10;;;1.10;;
7156;SDS011;3620;49.862;8.758;2022-09-23T04:38:54;1.10;;;1.10;;
7156;SDS011;3620;49.862;8.758;2022-09-23T04:41:23;1.10;;;1.10;;
7156;SDS011;3620;49.862;8.758;2022-09-23T04:43:49;1.10;;;1.10;;
7156;SDS011;3620;49.862;8.758;2022-09-23T04:46:16;1.10;;;1.10;;
7156;SDS011;3620;49.862;8.758;2022-09-23T04:48:43;0.97;;;0.97;;
7156;SDS011;3620;49.862;8.758;2022-09-23T04:51:11;1.20;;;1.20;;
7156;SDS011;3620;49.862;8.758;2022-09-23T04:53:39;1.00;;;1.00;;
7156;SDS011;3620;49.862;8.758;2022-09-23T04:56:08;1.00;;;1.00;;
7156;SDS011;3620;49.862;8.758;2022-09-23T04:58:37;1.17;;;1.17;;
7156;SDS011;3620;49.862;8.758;2022-09-23T05:01:08;1.00;;;1.00;;
7156;SDS011;3620;49.862;8.758;2022-09-23T05:03:35;1.00;;;1.00;;
7156;SDS011;3620;49.862;8.758;2022-09-23T05:06:02;1.00;;;1.00;;
7156;SDS011;3620;49.862;8.758;2022-09-23T05:08:29;1.20;;;1.20;;
7156;SDS011;3620;49.862;8.758;2022-09-23T05:10:56;1.20;;;1.20;;
7156;SDS011;3620;49.862;8.758;2022-09-23T05:13:23;1.10;;;1.10;;
7156;SDS011;3620;49.862;8.758;2022-09-23T05:15:57;1.00;;;1.00;;
7156;SDS011;3620;49.862;8.758;2022-09-23T05:18:24;1.00;;;1.00;;
7156;SDS011;3620;49.862;8.758;2022-09-23T05:20:54;1.10;;;1.10;;
7156;SDS011;3620;49.862;8.758;2022-09-23T05:23:21;1.00;;;1.00;;
7156;SDS011;3620;49.862;8.758;2022-09-23T05:25:48;1.10;;;1.10;;
7156;SDS011;3620;49.862;8.758;2022-09-23T05:28:20;0.90;;;0.90;;
7156;SDS011;3620;49.862;8.758;2022-09-23T05:30:47;1.10;;;1.10;;
7156;SDS011;3620;49.862;8.758;2022-09-23T05:33:15;1.00;;;1.00;;
7156;SDS011;3620;49.862;8.758;2022-09-23T05:35:44;1.10;;;1.10;;
7156;SDS011;3620;49.862;8.758;2022-09-23T05:38:12;1.00;;;1.00;;
7156;SDS011;3620;49.862;8.758;2022-09-23T05:40:40;1.20;;;1.20;;
7156;SDS011;3620;49.862;8.758;2022-09-23T05:43:07;1.10;;;1.10;;
7156;SDS011;3620;49.862;8.758;2022-09-23T05:45:34;1.10;;;1.10;;
7156;SDS011;3620;49.862;8.758;2022-09-23T05:48:01;1.00;;;1.00;;
7156;SDS011;3620;49.862;8.758;2022-09-23T05:50:29;1.10;;;1.10;;
7156;SDS011;3620;49.862;8.758;2022-09-23T05:52:55;1.20;;;1.20;;
7156;SDS011;3620;49.862;8.758;2022-09-23T05:55:23;1.10;;;1.10;;
7156;SDS011;3620;49.862;8.758;2022-09-23T05:57:51;1.10;;;1.10;;
7156;SDS011;3620;49.862;8.758;2022-09-23T06:00:17;1.00;;;1.00;;
7156;SDS011;3620;49.862;8.758;2022-09-23T06:02:45;1.10;;;1.10;;
7156;SDS011;3620;49.862;8.758;2022-09-23T06:05:12;1.00;;;1.00;;
7156;SDS011;3620;49.862;8.758;2022-09-23T06:07:41;0.90;;;0.90;;
7156;SDS011;3620;49.862;8.758;2022-09-23T06:10:08;1.00;;;1.00;;
7156;SDS011;3620;49.862;8.758;2022-09-23T06:12:35;1.10;;;1.10;;
7156;SDS011;3620;49.862;8.758;2022-09-23T06:15:02;1.10;;;1.10;;
7156;SDS011;3620;49.862;8.758;2022-09-23T06:17:29;1.10;;;1.10;;
7156;SDS011;3620;49.862;8.758;2022-09-23T06:19:56;1.00;;;1.00;;
7156;SDS011;3620;49.862;8.758;2022-09-23T06:22:23;1.10;;;1.10;;
7156;SDS011;3620;49.862;8.758;2022-09-23T06:24:51;1.00;;;1.00;;
7156;SDS011;3620;49.862;8.758;2022-09-23T06:27:18;1.03;;;1.03;;
7156;SDS011;3620;49.862;8.758;2022-09-23T06:29:45;1.00;;;1.00;;
7156;SDS011;3620;49.862;8.758;2022-09-23T06:32:11;1.00;;;1.00;;
7156;SDS011;3620;49.862;8.758;2022-09-23T06:34:38;1.00;;;1.00;;
7156;SDS011;3620;49.862;8.758;2022-09-23T06:37:06;1.10;;;1.10;;
7156;SDS011;3620;49.862;8.758;2022-09-23T06:39:33;1.00;;;1.00;;
7156;SDS011;3620;49.862;8.758;2022-09-23T06:42:00;1.00;;;1.00;;
7156;SDS011;3620;49.862;8.758;2022-09-23T06:44:27;1.10;;;1.10;;
7156;SDS011;3620;49.862;8.758;2022-09-23T06:46:54;1.00;;;1.00;;
7156;SDS011;3620;49.862;8.758;2022-09-23T06:49:21;1.10;;;1.10;;
7156;SDS011;3620;49.862;8.758;2022-09-23T06:51:47;1.00;;;1.00;;
7156;SDS011;3620;49.862;8.758;2022-09-23T06:54:14;1.10;;;1.10;;
7156;SDS011;3620;49.862;8.758;2022-09-23T06:56:41;1.10;;;1.10;;
7156;SDS011;3620;49.862;8.758;2022-09-23T06:59:10;1.00;;;1.00;;
7156;SDS011;3620;49.862;8.758;2022-09-23T07:01:41;0.90;;;0.90;;
7156;SDS011;3620;49.862;8.758;2022-09-23T07:04:09;1.00;;;1.00;;
7156;SDS011;3620;49.862;8.758;2022-09-23T07:06:35;1.07;;;1.07;;
7156;SDS011;3620;49.862;8.758;2022-09-23T07:09:02;0.90;;;0.90;;
7156;SDS011;3620;49.862;8.758;2022-09-23T07:11:30;1.10;;;1.10;;
7156;SDS011;3620;49.862;8.758;2022-09-23T07:13:57;1.07;;;1.07;;
7156;SDS011;3620;49.862;8.758;2022-09-23T07:16:25;1.10;;;1.10;;
7156;SDS011;3620;49.862;8.758;2022-09-23T07:18:51;0.90;;;0.90;;
7156;SDS011;3620;49.862;8.758;2022-09-23T07:21:18;1.20;;;1.20;;
7156;SDS011;3620;49.862;8.758;2022-09-23T07:23:45;1.07;;;1.07;;
7156;SDS011;3620;49.862;8.758;2022-09-23T07:26:14;1.00;;;1.00;;
7156;SDS011;3620;49.862;8.758;2022-09-23T07:28:43;1.07;;;1.07;;
7156;SDS011;3620;49.862;8.758;2022-09-23T07:31:10;0.90;;;0.90;;
7156;SDS011;3620;49.862;8.758;2022-09-23T07:33:39;1.00;;;1.00;;
7156;SDS011;3620;49.862;8.758;2022-09-23T07:36:08;1.00;;;1.00;;
7156;SDS011;3620;49.862;8.758;2022-09-23T07:38:37;0.93;;;0.93;;
7156;SDS011;3620;49.862;8.758;2022-09-23T07:41:05;1.00;;;1.00;;
7156;SDS011;3620;49.862;8.758;2022-09-23T07:43:33;1.00;;;1.00;;
7156;SDS011;3620;49.862;8.758;2022-09-23T07:46:00;1.00;;;1.00;;
7156;SDS011;3620;49.862;8.758;2022-09-23T07:48:29;0.87;;;0.87;;
7156;SDS011;3620;49.862;8.758;2022-09-23T07:50:57;0.90;;;0.90;;
7156;SDS011;3620;49.862;8.758;2022-09-23T07:53:24;0.83;;;0.83;;
7156;SDS011;3620;49.862;8.758;2022-09-23T07:55:52;1.00;;;1.00;;
7156;SDS011;3620;49.862;8.758;2022-09-23T07:58:19;0.87;;;0.87;;
7156;SDS011;3620;49.862;8.758;2022-09-23T08:00:46;0.90;;;0.90;;
7156;SDS011;3620;49.862;8.758;2022-09-23T08:03:15;1.00;;;1.00;;
7156;SDS011;3620;49.862;8.758;2022-09-23T08:05:42;1.00;;;1.00;;
7156;SDS011;3620;49.862;8.758;2022-09-23T08:08:11;0.77;;;0.77;;
7156;SDS011;3620;49.862;8.758;2022-09-23T08:10:38;1.00;;;1.00;;
7156;SDS011;3620;49.862;8.758;2022-09-23T08:13:05;0.90;;;0.90;;
7156;SDS011;3620;49.862;8.758;2022-09-23T08:15:32;1.10;;;1.10;;
7156;SDS011;3620;49.862;8.758;2022-09-23T08:17:58;1.00;;;1.00;;
7156;SDS011;3620;49.862;8.758;2022-09-23T08:20:25;1.00;;;1.00;;
7156;SDS011;3620;49.862;8.758;2022-09-23T08:23:13;0.90;;;0.90;;
7156;SDS011;3620;49.862;8.758;2022-09-23T08:25:40;0.90;;;0.90;;
7156;SDS011;3620;49.862;8.758;2022-09-23T08:28:09;1.07;;;1.07;;
7156;SDS011;3620;49.862;8.758;2022-09-23T08:30:41;0.80;;;0.80;;
7156;SDS011;3620;49.862;8.758;2022-09-23T08:33:08;0.93;;;0.93;;
7156;SDS011;3620;49.862;8.758;2022-09-23T08:35:35;0.90;;;0.90;;
7156;SDS011;3620;49.862;8.758;2022-09-23T08:38:02;0.80;;;0.80;;
7156;SDS011;3620;49.862;8.758;2022-09-23T08:40:30;0.80;;;0.80;;
7156;SDS011;3620;49.862;8.758;2022-09-23T08:42:59;0.83;;;0.83;;
7156;SDS011;3620;49.862;8.758;2022-09-23T08:45:26;0.80;;;0.80;;
7156;SDS011;3620;49.862;8.758;2022-09-23T08:47:54;1.00;;;1.00;;
7156;SDS011;3620;49.862;8.758;2022-09-23T08:50:27;0.90;;;0.90;;
7156;SDS011;3620;49.862;8.758;2022-09-23T08:52:59;0.90;;;0.90;;
7156;SDS011;3620;49.862;8.758;2022-09-23T08:55:31;0.90;;;0.90;;
7156;SDS011;3620;49.862;8.758;2022-09-23T08:58:04;0.90;;;0.90;;
7156;SDS011;3620;49.862;8.758;2022-09-23T09:00:42;0.90;;;0.90;;
7156;SDS011;3620;49.862;8.758;2022-09-23T09:03:17;0.90;;;0.90;;
7156;SDS011;3620;49.862;8.758;2022-09-23T09:05:46;0.80;;;0.80;;
7156;SDS011;3620;49.862;8.758;2022-09-23T09:08:15;0.90;;;0.90;;
7156;SDS011;3620;49.862;8.758;2022-09-23T09:10:49;0.90;;;0.90;;
7156;SDS011;3620;49.862;8.758;2022-09-23T09:13:21;1.00;;;1.00;;
7156;SDS011;3620;49.862;8.758;2022-09-23T09:15:57;0.80;;;0.80;;
7156;SDS011;3620;49.862;8.758;2022-09-23T09:18:41;1.00;;;1.00;;
7156;SDS011;3620;49.862;8.758;2022-09-23T09:21:12;0.60;;;0.60;;
7156;SDS011;3620;49.862;8.758;2022-09-23T09:23:42;1.00;;;1.00;;
7156;SDS011;3620;49.862;8.758;2022-09-23T09:26:16;0.80;;;0.80;;
7156;SDS011;3620;49.862;8.758;2022-09-23T09:28:47;0.90;;;0.90;;
7156;SDS011;3620;49.862;8.758;2022-09-23T09:31:19;0.90;;;0.90;;
7156;SDS011;3620;49.862;8.758;2022-09-23T09:33:52;0.83;;;0.83;;
7156;SDS011;3620;49.862;8.758;2022-09-23T09:36:25;0.90;;;0.90;;
7156;SDS011;3620;49.862;8.758;2022-09-23T09:39:00;0.80;;;0.80;;
7156;SDS011;3620;49.862;8.758;2022-09-23T09:41:28;0.80;;;0.80;;
7156;SDS011;3620;49.862;8.758;2022-09-23T09:43:55;0.90;;;0.90;;
7156;SDS011;3620;49.862;8.758;2022-09-23T09:46:36;0.90;;;0.90;;
7156;SDS011;3620;49.862;8.758;2022-09-23T09:49:17;0.80;;;0.80;;
7156;SDS011;3620;49.862;8.758;2022-09-23T09:52:19;0.80;;;0.80;;
7156;SDS011;3620;49.862;8.758;2022-09-23T09:54:48;0.80;;;0.80;;
7156;SDS011;3620;49.862;8.758;2022-09-23T09:57:18;0.87;;;0.87;;
7156;SDS011;3620;49.862;8.758;2022-09-23T09:59:54;0.87;;;0.87;;
7156;SDS011;3620;49.862;8.758;2022-09-23T10:02:23;0.80;;;0.80;;
7156;SDS011;3620;49.862;8.758;2022-09-23T10:04:57;0.80;;;0.80;;
7156;SDS011;3620;49.862;8.758;2022-09-23T10:07:27;0.80;;;0.80;;
7156;SDS011;3620;49.862;8.758;2022-09-23T10:09:54;0.80;;;0.80;;
7156;SDS011;3620;49.862;8.758;2022-09-23T10:12:23;0.80;;;0.80;;
7156;SDS011;3620;49.862;8.758;2022-09-23T10:14:54;0.90;;;0.90;;
7156;SDS011;3620;49.862;8.758;2022-09-23T10:17:26;0.87;;;0.87;;
7156;SDS011;3620;49.862;8.758;2022-09-23T10:19:59;0.80;;;0.80;;
7156;SDS011;3620;49.862;8.758;2022-09-23T10:22:33;0.80;;;0.80;;
7156;SDS011;3620;49.862;8.758;2022-09-23T10:25:06;0.90;;;0.90;;
7156;SDS011;3620;49.862;8.758;2022-09-23T10:27:38;0.80;;;0.80;;
7156;SDS011;3620;49.862;8.758;2022-09-23T10:30:17;0.70;;;0.70;;
7156;SDS011;3620;49.862;8.758;2022-09-23T10:32:48;0.80;;;0.80;;
7156;SDS011;3620;49.862;8.758;2022-09-23T10:35:18;0.80;;;0.80;;
7156;SDS011;3620;49.862;8.758;2022-09-23T10:37:49;0.80;;;0.80;;
7156;SDS011;3620;49.862;8.758;2022-09-23T10:40:19;0.80;;;0.80;;
7156;SDS011;3620;49.862;8.758;2022-09-23T10:43:17;0.80;;;0.80;;
7156;SDS011;3620;49.862;8.758;2022-09-23T10:46:15;0.80;;;0.80;;
7156;SDS011;3620;49.862;8.758;2022-09-23T10:55:23;0.80;;;0.80;;
7156;SDS011;3620;49.862;8.758;2022-09-23T10:58:17;0.80;;;0.80;;
7156;SDS011;3620;49.862;8.758;2022-09-23T11:01:02;0.80;;;0.80;;
7156;SDS011;3620;49.862;8.758;2022-09-23T11:03:49;0.80;;;0.80;;
7156;SDS011;3620;49.862;8.758;2022-09-23T11:06:33;0.80;;;0.80;;
7156;SDS011;3620;49.862;8.758;2022-09-23T11:09:16;0.80;;;0.80;;
7156;SDS011;3620;49.862;8.758;2022-09-23T11:11:59;0.80;;;0.80;;
7156;SDS011;3620;49.862;8.758;2022-09-23T11:14:45;0.80;;;0.80;;
7156;SDS011;3620;49.862;8.758;2022-09-23T11:17:40;0.80;;;0.80;;
7156;SDS011;3620;49.862;8.758;2022-09-23T11:20:21;0.80;;;0.80;;
7156;SDS011;3620;49.862;8.758;2022-09-23T11:25:48;0.80;;;0.80;;
7156;SDS011;3620;49.862;8.758;2022-09-23T11:31:34;0.70;;;0.70;;
7156;SDS011;3620;49.862;8.758;2022-09-23T11:34:15;0.80;;;0.80;;
7156;SDS011;3620;49.862;8.758;2022-09-23T11:36:55;0.70;;;0.70;;
7156;SDS011;3620;49.862;8.758;2022-09-23T11:39:29;0.80;;;0.80;;
7156;SDS011;3620;49.862;8.758;2022-09-23T11:42:02;0.70;;;0.70;;
7156;SDS011;3620;49.862;8.758;2022-09-23T11:44:34;0.70;;;0.70;;
7156;SDS011;3620;49.862;8.758;2022-09-23T11:47:09;0.70;;;0.70;;
7156;SDS011;3620;49.862;8.758;2022-09-23T11:49:45;0.70;;;0.70;;
7156;SDS011;3620;49.862;8.758;2022-09-23T11:52:17;0.70;;;0.70;;
7156;SDS011;3620;49.862;8.758;2022-09-23T11:54:48;0.80;;;0.80;;
7156;SDS011;3620;49.862;8.758;2022-09-23T11:57:22;0.80;;;0.80;;
7156;SDS011;3620;49.862;8.758;2022-09-23T11:59:53;0.70;;;0.70;;
7156;SDS011;3620;49.862;8.758;2022-09-23T12:02:27;0.70;;;0.70;;
7156;SDS011;3620;49.862;8.758;2022-09-23T12:05:08;0.80;;;0.80;;
7156;SDS011;3620;49.862;8.758;2022-09-23T12:07:42;0.60;;;0.60;;
7156;SDS011;3620;49.862;8.758;2022-09-23T12:10:14;0.80;;;0.80;;
7156;SDS011;3620;49.862;8.758;2022-09-23T12:12:43;0.80;;;0.80;;
7156;SDS011;3620;49.862;8.758;2022-09-23T12:15:28;0.80;;;0.80;;
7156;SDS011;3620;49.862;8.758;2022-09-23T12:18:20;0.70;;;0.70;;
7156;SDS011;3620;49.862;8.758;2022-09-23T12:21:03;0.77;;;0.77;;
7156;SDS011;3620;49.862;8.758;2022-09-23T12:23:47;0.80;;;0.80;;
7156;SDS011;3620;49.862;8.758;2022-09-23T12:26:25;0.73;;;0.73;;
7156;SDS011;3620;49.862;8.758;2022-09-23T12:28:54;0.70;;;0.70;;
7156;SDS011;3620;49.862;8.758;2022-09-23T12:31:25;0.70;;;0.70;;
7156;SDS011;3620;49.862;8.758;2022-09-23T12:33:57;0.70;;;0.70;;
7156;SDS011;3620;49.862;8.758;2022-09-23T12:36:28;0.70;;;0.70;;
7156;SDS011;3620;49.862;8.758;2022-09-23T12:39:00;0.70;;;0.70;;
7156;SDS011;3620;49.862;8.758;2022-09-23T12:41:32;0.70;;;0.70;;
7156;SDS011;3620;49.862;8.758;2022-09-23T12:44:12;0.70;;;0.70;;
7156;SDS011;3620;49.862;8.758;2022-09-23T12:46:49;0.70;;;0.70;;
7156;SDS011;3620;49.862;8.758;2022-09-23T12:49:55;0.70;;;0.70;;
7156;SDS011;3620;49.862;8.758;2022-09-23T12:52:23;0.70;;;0.70;;
7156;SDS011;3620;49.862;8.758;2022-09-23T12:54:54;0.70;;;0.70;;
7156;SDS011;3620;49.862;8.758;2022-09-23T12:57:40;0.70;;;0.70;;
7156;SDS011;3620;49.862;8.758;2022-09-23T13:00:17;0.60;;;0.60;;
7156;SDS011;3620;49.862;8.758;2022-09-23T13:02:52;0.70;;;0.70;;
7156;SDS011;3620;49.862;8.758;2022-09-23T13:05:44;0.70;;;0.70;;
7156;SDS011;3620;49.862;8.758;2022-09-23T13:08:29;0.70;;;0.70;;
7156;SDS011;3620;49.862;8.758;2022-09-23T13:10:59;0.80;;;0.80;;
7156;SDS011;3620;49.862;8.758;2022-09-23T13:13:30;0.70;;;0.70;;
7156;SDS011;3620;49.862;8.758;2022-09-23T13:18:50;0.80;;;0.80;;
7156;SDS011;3620;49.862;8.758;2022-09-23T13:24:40;0.70;;;0.70;;
7156;SDS011;3620;49.862;8.758;2022-09-23T13:27:14;0.70;;;0.70;;
7156;SDS011;3620;49.862;8.758;2022-09-23T13:29:46;0.80;;;0.80;;
7156;SDS011;3620;49.862;8.758;2022-09-23T13:32:17;0.70;;;0.70;;
7156;SDS011;3620;49.862;8.758;2022-09-23T13:34:47;0.77;;;0.77;;
7156;SDS011;3620;49.862;8.758;2022-09-23T13:37:24;0.70;;;0.70;;
7156;SDS011;3620;49.862;8.758;2022-09-23T13:40:05;0.70;;;0.70;;
7156;SDS011;3620;49.862;8.758;2022-09-23T13:42:32;0.60;;;0.60;;
7156;SDS011;3620;49.862;8.758;2022-09-23T13:45:04;0.70;;;0.70;;
7156;SDS011;3620;49.862;8.758;2022-09-23T13:47:40;0.70;;;0.70;;
7156;SDS011;3620;49.862;8.758;2022-09-23T13:50:12;0.70;;;0.70;;
7156;SDS011;3620;49.862;8.758;2022-09-23T13:52:44;0.70;;;0.70;;
7156;SDS011;3620;49.862;8.758;2022-09-23T13:55:24;0.70;;;0.70;;
7156;SDS011;3620;49.862;8.758;2022-09-23T13:57:57;0.60;;;0.60;;
7156;SDS011;3620;49.862;8.758;2022-09-23T14:00:25;0.70;;;0.70;;
7156;SDS011;3620;49.862;8.758;2022-09-23T14:02:57;0.70;;;0.70;;
7156;SDS011;3620;49.862;8.758;2022-09-23T14:05:25;0.70;;;0.70;;
7156;SDS011;3620;49.862;8.758;2022-09-23T14:07:58;0.60;;;0.60;;
7156;SDS011;3620;49.862;8.758;2022-09-23T14:10:26;0.60;;;0.60;;
7156;SDS011;3620;49.862;8.758;2022-09-23T14:12:53;0.60;;;0.60;;
7156;SDS011;3620;49.862;8.758;2022-09-23T14:15:21;0.70;;;0.70;;
7156;SDS011;3620;49.862;8.758;2022-09-23T14:17:49;0.60;;;0.60;;
7156;SDS011;3620;49.862;8.758;2022-09-23T14:20:19;0.60;;;0.60;;
7156;SDS011;3620;49.862;8.758;2022-09-23T14:23:02;0.60;;;0.60;;
7156;SDS011;3620;49.862;8.758;2022-09-23T14:25:30;0.63;;;0.63;;
7156;SDS011;3620;49.862;8.758;2022-09-23T14:27:58;0.60;;;0.60;;
7156;SDS011;3620;49.862;8.758;2022-09-23T14:30:26;0.60;;;0.60;;
7156;SDS011;3620;49.862;8.758;2022-09-23T14:32:53;0.60;;;0.60;;
7156;SDS011;3620;49.862;8.758;2022-09-23T14:35:21;0.60;;;0.60;;
7156;SDS011;3620;49.862;8.758;2022-09-23T14:37:52;0.60;;;0.60;;
7156;SDS011;3620;49.862;8.758;2022-09-23T14:40:49;0.60;;;0.60;;
7156;SDS011;3620;49.862;8.758;2022-09-23T14:43:19;0.60;;;0.60;;
7156;SDS011;3620;49.862;8.758;2022-09-23T14:45:49;0.60;;;0.60;;
7156;SDS011;3620;49.862;8.758;2022-09-23T14:48:21;0.60;;;0.60;;
7156;SDS011;3620;49.862;8.758;2022-09-23T14:50:50;0.70;;;0.70;;
7156;SDS011;3620;49.862;8.758;2022-09-23T14:53:33;0.70;;;0.70;;
7156;SDS011;3620;49.862;8.758;2022-09-23T14:56:13;0.60;;;0.60;;
7156;SDS011;3620;49.862;8.758;2022-09-23T14:58:51;0.70;;;0.70;;
7156;SDS011;3620;49.862;8.758;2022-09-23T15:01:32;0.60;;;0.60;;
7156;SDS011;3620;49.862;8.758;2022-09-23T15:04:08;0.60;;;0.60;;
7156;SDS011;3620;49.862;8.758;2022-09-23T15:06:37;0.60;;;0.60;;
7156;SDS011;3620;49.862;8.758;2022-09-23T15:09:07;0.60;;;0.60;;
7156;SDS011;3620;49.862;8.758;2022-09-23T15:11:45;0.60;;;0.60;;
7156;SDS011;3620;49.862;8.758;2022-09-23T15:14:12;0.70;;;0.70;;
7156;SDS011;3620;49.862;8.758;2022-09-23T15:16:39;0.70;;;0.70;;
7156;SDS011;3620;49.862;8.758;2022-09-23T15:19:11;0.60;;;0.60;;
7156;SDS011;3620;49.862;8.758;2022-09-23T15:21:43;0.60;;;0.60;;
7156;SDS011;3620;49.862;8.758;2022-09-23T15:27:05;0.60;;;0.60;;
7156;SDS011;3620;49.862;8.758;2022-09-23T15:29:36;0.70;;;0.70;;
7156;SDS011;3620;49.862;8.758;2022-09-23T15:32:03;0.70;;;0.70;;
7156;SDS011;3620;49.862;8.758;2022-09-23T15:34:32;0.70;;;0.70;;
7156;SDS011;3620;49.862;8.758;2022-09-23T15:36:59;0.60;;;0.60;;
7156;SDS011;3620;49.862;8.758;2022-09-23T15:39:26;0.70;;;0.70;;
7156;SDS011;3620;49.862;8.758;2022-09-23T15:41:54;0.70;;;0.70;;
7156;SDS011;3620;49.862;8.758;2022-09-23T15:44:22;0.60;;;0.60;;
7156;SDS011;3620;49.862;8.758;2022-09-23T15:46:53;0.70;;;0.70;;
7156;SDS011;3620;49.862;8.758;2022-09-23T15:49:24;0.60;;;0.60;;
7156;SDS011;3620;49.862;8.758;2022-09-23T15:51:57;0.70;;;0.70;;
7156;SDS011;3620;49.862;8.758;2022-09-23T15:54:25;0.70;;;0.70;;
7156;SDS011;3620;49.862;8.758;2022-09-23T15:56:51;0.70;;;0.70;;
7156;SDS011;3620;49.862;8.758;2022-09-23T15:59:19;0.70;;;0.70;;
7156;SDS011;3620;49.862;8.758;2022-09-23T16:01:47;0.60;;;0.60;;
7156;SDS011;3620;49.862;8.758;2022-09-23T16:04:13;0.60;;;0.60;;